Etusivu
METAR-TAF:

METAR-TAF

Lentoasemat :

Farnborough, Englanti

Leveyspiiri: 51-17N, Pituuspiiri: 000-46W, korkeus merenpinnasta: 65 m

Tämänhetkinen sää

Tämä raportti tehtiin 42 minuuttia sitten, kello 06.50 UTC
Tuuli 8 kn pohjoisen/luoteesta, vaihdellen lännen/luoteen ja pohjoisen välillä
Lämpötila 6°C
Kosteus 65%
Ilmanpaine 1030 hPa
Näkyvyys 10 km tai enemmän

METAR: EGLF 250650Z AUTO 33008KT 290V360 9999 NCD 06/00 Q1030

Aika: 07:32 (07:32 UTC)

Sääennuste

Tämä raportti tehtiin 55 minuuttia sitten, kello 06.37 UTC
Ennuste voimassa 25. päivästä klo 06 UTC - 25. päivään klo 15 UTC
Tuuli 8 kn lännestä/luoteesta
Näkyvyys 10 km tai enemmän
Muutamia pilviä 4500 ft:n korkeudessa
Tulossa
25. päivästä klo 07 UTC - 25. päivään klo 10 UTC
Tuuli 10 kn pohjoisesta

TAF: EGLF 250637Z 2506/2515 30008KT 9999 FEW045 BECMG 2507/2510 36010KT

Säähavainnot ja -ennusteet yli 4000 lentoasemalta (METAR- ja TAF-raportit).

Käytössä olevat sääasemat on merkitty karttaan keltaisilla ja punaisilla pisteillä.

Aseta hiiri pisteen päälle nähdäksesi sääaseman nimen.

Klikkaa sitten nähdäksesi säähavainnot ja -ennusteet.

Kartan vaihtaminen: klikkaa mustalla rastilla varustettuja vihreitä pisteitä, niin voit zoomata sisään; viivalla varustettua vihreää pistettä, niin voit zoomata ulos tai vihreitä nuolia, niin pääset viereisille kartoille.


METAR-TAF: